Weather at St Mary's Hospital of Milwaukee Heliport

Public forecast

Using degrees Fahrenheit for public forecast. Weather courtesy of forecast.io.

Closest aviation weather report (METAR) to St Mary's Hospital of Milwaukee Heliport

Closest report is General Mitchell International Airport, 6.9 nm (12.8 km) S. Retrieved 2021/06/13 09:52 UTC (52 minutes ago):

KMKE 130952Z 31003KT 10SM CLR 19/17 A2995 RMK AO2 SLP140 T01890167

Closest aviation forecast (TAF) to St Mary's Hospital of Milwaukee Heliport

Closest forecast is General Mitchell International Airport, 6.9 nm (12.8 km) S. Retrieved 2021/06/13 06:22 UTC (4 hours ago):

TAF KMKE 130520Z 1306/1412 VRB03KT P6SM FEW200 FM130800 35006KT P6SM SKC FM131600 03007KT P6SM FEW250 FM132100 12006KT P6SM FEW250 FM140200 20006KT P6SM SCT150 FM140600 02010KT P6SM BKN100